Time;durP1;ratioP1;P1;durP2;ratioP2;P2;SDS_P1;SDS_P2;PMS_P1;PMS_P2;Temp;Humidity;BMP_temperature;BMP_pressure;BME280_temperature;BME280_humidity;BME280_pressure;Samples;Min_cycle;Max_cycle;Signal;HPM_P1;HPM_P2
2023/07/22 00:01:35;;;;;;;9.57;8.80;;;;;;;;;;4875496;29;20430;-88
2023/07/22 00:04:01;;;;;;;11.13;10.03;;;;;;;;;;4872523;29;20504;-88
2023/07/22 00:06:27;;;;;;;10.40;9.70;;;;;;;;;;4872396;29;20869;-87
2023/07/22 00:08:53;;;;;;;11.10;10.03;;;;;;;;;;4873048;29;20434;-87
2023/07/22 00:11:20;;;;;;;9.50;8.90;;;;;;;;;;4872391;29;21158;-88
2023/07/22 00:13:46;;;;;;;11.50;10.50;;;;;;;;;;4871348;29;20477;-87
2023/07/22 00:16:12;;;;;;;9.50;8.90;;;;;;;;;;4871909;29;20465;-86
2023/07/22 00:18:38;;;;;;;10.47;9.67;;;;;;;;;;4854442;29;21075;-87
2023/07/22 00:21:04;;;;;;;10.43;9.37;;;;;;;;;;4871083;29;20442;-87
2023/07/22 00:23:30;;;;;;;10.83;9.73;;;;;;;;;;4868033;29;20449;-88
2023/07/22 00:25:56;;;;;;;10.67;9.63;;;;;;;;;;4870572;29;20980;-87
2023/07/22 00:28:22;;;;;;;10.40;9.40;;;;;;;;;;4870853;29;21119;-88
2023/07/22 00:30:49;;;;;;;10.70;9.63;;;;;;;;;;4854574;29;20570;-88
2023/07/22 00:33:15;;;;;;;10.50;9.60;;;;;;;;;;4871206;29;20469;-87
2023/07/22 00:35:41;;;;;;;10.17;9.43;;;;;;;;;;4851729;29;20454;-87
2023/07/22 00:38:06;;;;;;;10.30;9.40;;;;;;;;;;4872299;29;20437;-88
2023/07/22 00:40:32;;;;;;;10.70;9.87;;;;;;;;;;4870344;29;20449;-89
2023/07/22 00:43:01;;;;;;;10.43;9.73;;;;;;;;;;4872293;29;20456;-89
2023/07/22 00:45:27;;;;;;;10.47;9.67;;;;;;;;;;4863352;29;20482;-87
2023/07/22 00:47:53;;;;;;;10.83;9.90;;;;;;;;;;4872604;29;20497;-87
2023/07/22 00:50:19;;;;;;;10.60;9.60;;;;;;;;;;4870173;29;20433;-88
2023/07/22 00:52:45;;;;;;;11.13;10.17;;;;;;;;;;4872849;29;20781;-88
2023/07/22 00:55:12;;;;;;;11.90;9.40;;;;;;;;;;4869075;29;20533;-87
2023/07/22 00:57:38;;;;;;;10.70;9.80;;;;;;;;;;4871908;29;20446;-87
2023/07/22 01:00:05;;;;;;;10.37;9.43;;;;;;;;;;4869542;29;20456;-87
2023/07/22 01:02:31;;;;;;;10.33;9.50;;;;;;;;;;4871253;29;21020;-88
2023/07/22 01:04:57;;;;;;;10.07;9.17;;;;;;;;;;4869398;29;20485;-89
2023/07/22 01:07:23;;;;;;;11.47;10.40;;;;;;;;;;4872293;29;20418;-88
2023/07/22 01:09:49;;;;;;;11.20;9.23;;;;;;;;;;4867699;29;20469;-88
2023/07/22 01:15:19;;;;;;;11.00;9.90;;;;;;;;;;4863964;29;21101;-88
2023/07/22 01:17:45;;;;;;;9.80;9.00;;;;;;;;;;4859374;29;20421;-87
2023/07/22 01:20:11;;;;;;;9.20;8.60;;;;;;;;;;4862013;29;20991;-88
2023/07/22 01:22:41;;;;;;;10.77;9.80;;;;;;;;;;4851657;29;21489;-87
2023/07/22 01:25:08;;;;;;;10.27;9.47;;;;;;;;;;4862748;29;21162;-87
2023/07/22 01:27:34;;;;;;;9.50;8.80;;;;;;;;;;4859792;29;20458;-85
2023/07/22 01:30:02;;;;;;;10.23;8.83;;;;;;;;;;4860055;29;20502;-88
2023/07/22 01:32:28;;;;;;;9.80;9.00;;;;;;;;;;4861430;29;20435;-86
2023/07/22 01:34:54;;;;;;;10.03;9.30;;;;;;;;;;4864539;29;20478;-88
2023/07/22 01:37:20;;;;;;;10.43;9.60;;;;;;;;;;4858583;29;20559;-88
2023/07/22 01:39:46;;;;;;;9.17;8.53;;;;;;;;;;4861180;29;20447;-88
2023/07/22 01:42:12;;;;;;;9.90;9.00;;;;;;;;;;4858018;29;20461;-86
2023/07/22 01:44:40;;;;;;;9.80;9.07;;;;;;;;;;4862802;29;20457;-87
2023/07/22 01:47:06;;;;;;;10.77;9.90;;;;;;;;;;4856936;29;20569;-87
2023/07/22 01:49:33;;;;;;;10.83;10.03;;;;;;;;;;4862706;29;20446;-87
2023/07/22 01:52:00;;;;;;;11.20;10.40;;;;;;;;;;4863445;29;20453;-87
2023/07/22 01:54:26;;;;;;;10.67;9.70;;;;;;;;;;4860317;29;20470;-87
2023/07/22 01:56:52;;;;;;;11.13;10.10;;;;;;;;;;4853746;29;20514;-87
2023/07/22 01:59:18;;;;;;;9.83;8.90;;;;;;;;;;4859669;29;20477;-86
2023/07/22 02:01:44;;;;;;;10.20;9.30;;;;;;;;;;4859787;29;20490;-89
2023/07/22 02:04:10;;;;;;;9.80;8.53;;;;;;;;;;4880651;29;20423;-87
2023/07/22 02:06:36;;;;;;;12.40;11.00;;;;;;;;;;4880135;29;20453;-88
2023/07/22 02:09:08;;;;;;;9.43;8.70;;;;;;;;;;4872744;29;20424;-87
2023/07/22 02:11:35;;;;;;;9.77;8.87;;;;;;;;;;4864296;29;20449;-87
2023/07/22 02:14:01;;;;;;;10.87;10.00;;;;;;;;;;4859975;29;20494;-89
2023/07/22 02:16:27;;;;;;;14.73;9.67;;;;;;;;;;4874873;29;20499;-88
2023/07/22 02:18:53;;;;;;;9.07;8.30;;;;;;;;;;4882901;29;20421;-88
2023/07/22 02:21:19;;;;;;;10.03;9.10;;;;;;;;;;4875650;29;20446;-88
2023/07/22 02:23:44;;;;;;;10.20;9.40;;;;;;;;;;4876445;29;20428;-88
2023/07/22 02:26:10;;;;;;;10.00;9.20;;;;;;;;;;4878577;29;20437;-88
2023/07/22 02:28:37;;;;;;;11.53;8.90;;;;;;;;;;4882526;29;20524;-89
2023/07/22 02:31:06;;;;;;;11.23;9.90;;;;;;;;;;4874235;29;20679;-87
2023/07/22 02:33:32;;;;;;;9.70;8.83;;;;;;;;;;4901704;29;20573;-88
2023/07/22 02:35:58;;;;;;;9.30;8.60;;;;;;;;;;4889484;29;20516;-87
2023/07/22 02:38:24;;;;;;;10.63;9.73;;;;;;;;;;4889373;29;20409;-87
2023/07/22 02:40:50;;;;;;;12.90;9.60;;;;;;;;;;4897253;29;20460;-88
2023/07/22 02:43:16;;;;;;;10.10;9.30;;;;;;;;;;4897885;29;20436;-87
2023/07/22 02:45:42;;;;;;;12.50;8.80;;;;;;;;;;4900338;29;20944;-87
2023/07/22 02:48:09;;;;;;;9.83;9.03;;;;;;;;;;4888974;29;20440;-88
2023/07/22 02:50:36;;;;;;;9.60;8.63;;;;;;;;;;4898867;29;20464;-88
2023/07/22 02:53:02;;;;;;;14.67;8.77;;;;;;;;;;4897770;29;20524;-87
2023/07/22 02:55:28;;;;;;;8.90;8.10;;;;;;;;;;4890525;29;20444;-87
2023/07/22 02:57:54;;;;;;;10.00;9.20;;;;;;;;;;4895758;29;20483;-87
2023/07/22 03:00:24;;;;;;;9.37;8.57;;;;;;;;;;4894413;29;20447;-87
2023/07/22 03:02:52;;;;;;;8.70;8.10;;;;;;;;;;4899380;29;20815;-87
2023/07/22 03:05:18;;;;;;;8.97;8.17;;;;;;;;;;4897513;29;20433;-87
2023/07/22 03:07:44;;;;;;;8.60;8.00;;;;;;;;;;4880182;29;20432;-87
2023/07/22 03:10:10;;;;;;;9.57;8.87;;;;;;;;;;4896518;29;20470;-87
2023/07/22 03:12:36;;;;;;;8.67;7.97;;;;;;;;;;4903234;29;20491;-86
2023/07/22 03:15:03;;;;;;;10.17;9.07;;;;;;;;;;4901897;29;20485;-85
2023/07/22 03:17:30;;;;;;;9.53;8.63;;;;;;;;;;4901263;29;20482;-85
2023/07/22 03:19:56;;;;;;;8.93;8.23;;;;;;;;;;4906415;29;20445;-85
2023/07/22 03:22:22;;;;;;;8.53;8.00;;;;;;;;;;4901535;29;20443;-85
2023/07/22 03:24:48;;;;;;;9.23;8.43;;;;;;;;;;4908853;29;20441;-85
2023/07/22 03:27:17;;;;;;;8.97;8.07;;;;;;;;;;4909189;29;20429;-85
2023/07/22 03:29:43;;;;;;;7.90;7.47;;;;;;;;;;4906431;29;20543;-85
2023/07/22 03:32:09;;;;;;;8.87;8.17;;;;;;;;;;4902549;29;20493;-85
2023/07/22 03:34:35;;;;;;;8.40;7.60;;;;;;;;;;4900715;29;20622;-86
2023/07/22 03:37:01;;;;;;;9.13;8.30;;;;;;;;;;4901933;29;20445;-86
2023/07/22 03:39:27;;;;;;;10.47;8.10;;;;;;;;;;4907661;29;20471;-86
2023/07/22 03:41:53;;;;;;;9.50;8.80;;;;;;;;;;4902657;29;20472;-86
2023/07/22 03:44:19;;;;;;;7.90;7.23;;;;;;;;;;4908722;29;20468;-87
2023/07/22 03:46:45;;;;;;;9.40;8.50;;;;;;;;;;4914488;29;20436;-88
2023/07/22 03:49:11;;;;;;;8.23;7.73;;;;;;;;;;4902227;29;20441;-87
2023/07/22 03:51:37;;;;;;;8.63;8.00;;;;;;;;;;4898701;29;20459;-86
2023/07/22 03:54:03;;;;;;;9.00;8.20;;;;;;;;;;4909024;29;20471;-88
2023/07/22 03:56:29;;;;;;;8.43;7.67;;;;;;;;;;4905877;29;20528;-87
2023/07/22 03:58:55;;;;;;;8.77;7.90;;;;;;;;;;4904089;29;20479;-86
2023/07/22 04:01:21;;;;;;;8.47;7.97;;;;;;;;;;4900066;29;20445;-85
2023/07/22 04:03:47;;;;;;;9.10;8.40;;;;;;;;;;4905924;29;20920;-84
2023/07/22 04:06:13;;;;;;;7.77;7.13;;;;;;;;;;4905341;29;20471;-86
2023/07/22 04:08:39;;;;;;;8.10;7.50;;;;;;;;;;4902522;29;20441;-86
2023/07/22 04:11:05;;;;;;;8.40;7.70;;;;;;;;;;4907688;29;20977;-84
2023/07/22 04:13:31;;;;;;;8.00;7.50;;;;;;;;;;4918312;29;20476;-87
2023/07/22 04:15:57;;;;;;;8.43;7.73;;;;;;;;;;4918371;29;20492;-85
2023/07/22 04:18:23;;;;;;;8.07;7.30;;;;;;;;;;4911283;29;20441;-87
2023/07/22 04:20:56;;;;;;;7.87;7.20;;;;;;;;;;4910307;29;20448;-86
2023/07/22 04:23:22;;;;;;;8.17;7.60;;;;;;;;;;4897542;29;21065;-87
2023/07/22 04:25:48;;;;;;;7.97;7.17;;;;;;;;;;4899563;29;20445;-86
2023/07/22 04:28:15;;;;;;;7.17;6.67;;;;;;;;;;4904831;29;20525;-86
2023/07/22 04:30:41;;;;;;;8.03;7.30;;;;;;;;;;4900610;29;20445;-85
2023/07/22 04:33:10;;;;;;;8.07;7.63;;;;;;;;;;4896874;29;20433;-87
2023/07/22 04:35:38;;;;;;;8.53;7.73;;;;;;;;;;4881151;29;20526;-85
2023/07/22 04:38:04;;;;;;;12.27;8.10;;;;;;;;;;4908497;29;20437;-85
2023/07/22 04:40:30;;;;;;;8.10;7.50;;;;;;;;;;4909048;29;20456;-87
2023/07/22 04:42:57;;;;;;;7.50;6.90;;;;;;;;;;4913913;29;20407;-87
2023/07/22 04:45:27;;;;;;;9.13;7.93;;;;;;;;;;4917001;29;20512;-86
2023/07/22 04:47:53;;;;;;;8.07;7.37;;;;;;;;;;4914435;29;20486;-87
2023/07/22 04:50:19;;;;;;;8.37;7.83;;;;;;;;;;4911485;29;20564;-86
2023/07/22 04:52:46;;;;;;;9.00;8.00;;;;;;;;;;4916504;29;20505;-86
2023/07/22 04:55:12;;;;;;;8.07;7.47;;;;;;;;;;4908105;29;20476;-86
2023/07/22 04:57:41;;;;;;;8.00;6.90;;;;;;;;;;4905690;29;20444;-87
2023/07/22 05:00:09;;;;;;;7.63;7.13;;;;;;;;;;4903329;29;20448;-86
2023/07/22 05:02:35;;;;;;;8.33;7.67;;;;;;;;;;4910240;29;20571;-87
2023/07/22 05:05:01;;;;;;;8.10;7.50;;;;;;;;;;4911113;29;20449;-87
2023/07/22 05:07:27;;;;;;;8.27;7.53;;;;;;;;;;4904269;29;20501;-87
2023/07/22 05:09:53;;;;;;;7.47;6.80;;;;;;;;;;4916106;29;20497;-87
2023/07/22 05:12:19;;;;;;;9.33;8.63;;;;;;;;;;4908303;29;20420;-87
2023/07/22 05:14:46;;;;;;;8.37;7.60;;;;;;;;;;4900569;29;20520;-87
2023/07/22 05:17:12;;;;;;;8.30;7.67;;;;;;;;;;4901308;29;20565;-86
2023/07/22 05:19:38;;;;;;;9.37;8.67;;;;;;;;;;4899311;29;20892;-86
2023/07/22 05:22:04;;;;;;;8.60;7.90;;;;;;;;;;4876077;29;20437;-86
2023/07/22 05:24:30;;;;;;;8.43;7.80;;;;;;;;;;4891810;29;20448;-86
2023/07/22 05:26:56;;;;;;;8.67;8.03;;;;;;;;;;4885889;29;20805;-86
2023/07/22 05:29:22;;;;;;;9.67;8.40;;;;;;;;;;4901393;29;20515;-84
2023/07/22 05:31:48;;;;;;;9.10;8.50;;;;;;;;;;4900979;29;20442;-84
2023/07/22 05:34:14;;;;;;;8.60;8.10;;;;;;;;;;4909800;29;20872;-86
2023/07/22 05:36:40;;;;;;;8.17;7.47;;;;;;;;;;4897670;29;20441;-86
2023/07/22 05:39:06;;;;;;;8.90;8.20;;;;;;;;;;4902143;29;20440;-87
2023/07/22 05:41:35;;;;;;;7.43;6.90;;;;;;;;;;4896772;29;20454;-86
2023/07/22 05:44:01;;;;;;;8.70;8.10;;;;;;;;;;4881500;29;20435;-87
2023/07/22 05:46:27;;;;;;;8.47;7.93;;;;;;;;;;4900639;29;20440;-87
2023/07/22 05:48:53;;;;;;;8.23;7.60;;;;;;;;;;4911172;29;20405;-86
2023/07/22 05:51:19;;;;;;;7.83;7.43;;;;;;;;;;4905153;29;20452;-86
2023/07/22 05:53:45;;;;;;;13.23;7.63;;;;;;;;;;4903924;29;21057;-86
2023/07/22 05:56:11;;;;;;;7.90;7.40;;;;;;;;;;4897777;29;20446;-87
2023/07/22 05:58:37;;;;;;;9.67;8.83;;;;;;;;;;4900329;29;20803;-86
2023/07/22 06:01:03;;;;;;;7.90;7.50;;;;;;;;;;4892706;29;20453;-82
2023/07/22 06:03:29;;;;;;;8.60;8.10;;;;;;;;;;4898336;29;20465;-87
2023/07/22 06:05:55;;;;;;;8.80;8.20;;;;;;;;;;4892563;29;21196;-86
2023/07/22 06:08:21;;;;;;;8.30;7.70;;;;;;;;;;4898895;29;20475;-84
2023/07/22 06:10:47;;;;;;;8.40;7.90;;;;;;;;;;4893195;29;20528;-86
2023/07/22 06:13:13;;;;;;;8.50;7.90;;;;;;;;;;4897066;29;20456;-85
2023/07/22 06:15:39;;;;;;;7.60;7.20;;;;;;;;;;4893019;29;20804;-86
2023/07/22 06:18:08;;;;;;;9.37;8.60;;;;;;;;;;4894210;29;20437;-85
2023/07/22 06:20:34;;;;;;;9.40;8.53;;;;;;;;;;4901468;29;20452;-87
2023/07/22 06:23:00;;;;;;;8.90;8.20;;;;;;;;;;4916287;29;20420;-84
2023/07/22 06:25:26;;;;;;;7.47;6.97;;;;;;;;;;4900467;29;20479;-85
2023/07/22 06:27:54;;;;;;;7.60;7.00;;;;;;;;;;4898539;29;20448;-86
2023/07/22 06:30:20;;;;;;;7.93;7.43;;;;;;;;;;4894949;29;20492;-84
2023/07/22 06:32:46;;;;;;;8.40;7.77;;;;;;;;;;4891952;29;20455;-85
2023/07/22 06:35:11;;;;;;;8.53;7.93;;;;;;;;;;4898666;29;20477;-84
2023/07/22 06:37:38;;;;;;;7.73;7.23;;;;;;;;;;4896005;29;20500;-84
2023/07/22 06:40:04;;;;;;;9.13;8.43;;;;;;;;;;4891959;29;21040;-85
2023/07/22 06:42:30;;;;;;;8.00;7.50;;;;;;;;;;4895277;29;20459;-86
2023/07/22 06:44:56;;;;;;;8.77;8.13;;;;;;;;;;4888935;29;20840;-87
2023/07/22 06:47:22;;;;;;;8.67;8.00;;;;;;;;;;4901412;29;20441;-88
2023/07/22 06:49:48;;;;;;;7.97;7.47;;;;;;;;;;4902010;29;20469;-84
2023/07/22 06:52:14;;;;;;;8.30;7.77;;;;;;;;;;4889089;29;20465;-85
2023/07/22 06:54:40;;;;;;;8.10;7.43;;;;;;;;;;4892479;29;20468;-84
2023/07/22 06:57:06;;;;;;;8.30;7.80;;;;;;;;;;4877833;29;20583;-85
2023/07/22 06:59:32;;;;;;;8.53;8.03;;;;;;;;;;4893253;29;20455;-86
2023/07/22 07:01:59;;;;;;;10.10;9.43;;;;;;;;;;4906366;29;20561;-84
2023/07/22 07:04:25;;;;;;;8.87;8.43;;;;;;;;;;4902739;29;20452;-85
2023/07/22 07:06:51;;;;;;;9.13;8.53;;;;;;;;;;4902393;29;21042;-86
2023/07/22 07:09:17;;;;;;;8.97;8.47;;;;;;;;;;4893896;29;20468;-85
2023/07/22 07:11:43;;;;;;;8.50;7.70;;;;;;;;;;4897186;29;20458;-85
2023/07/22 07:14:09;;;;;;;8.77;8.17;;;;;;;;;;4891079;29;20536;-86
2023/07/22 07:16:35;;;;;;;8.20;7.70;;;;;;;;;;4890038;29;20492;-86
2023/07/22 07:19:01;;;;;;;9.57;8.87;;;;;;;;;;4893265;29;20477;-87
2023/07/22 07:21:28;;;;;;;9.20;8.60;;;;;;;;;;4896308;29;20570;-86
2023/07/22 07:23:54;;;;;;;8.30;7.80;;;;;;;;;;4896283;29;20451;-85
2023/07/22 07:26:21;;;;;;;8.67;7.93;;;;;;;;;;4891935;29;20440;-86
2023/07/22 07:28:47;;;;;;;8.73;8.23;;;;;;;;;;4901234;29;20865;-87
2023/07/22 07:31:13;;;;;;;8.10;7.60;;;;;;;;;;4903497;29;20424;-85
2023/07/22 07:33:39;;;;;;;9.97;8.10;;;;;;;;;;4899163;29;20507;-85
2023/07/22 07:36:05;;;;;;;8.63;8.00;;;;;;;;;;4884780;29;20476;-85
2023/07/22 07:38:31;;;;;;;8.03;7.57;;;;;;;;;;4898226;29;20457;-87
2023/07/22 07:40:59;;;;;;;9.00;8.30;;;;;;;;;;4896415;29;20436;-86
2023/07/22 07:43:25;;;;;;;9.37;8.47;;;;;;;;;;4896811;29;21000;-86
2023/07/22 07:45:51;;;;;;;9.03;8.23;;;;;;;;;;4905214;29;20431;-87
2023/07/22 07:48:17;;;;;;;9.97;9.10;;;;;;;;;;4898801;29;20445;-87
2023/07/22 07:50:43;;;;;;;8.67;8.17;;;;;;;;;;4907922;29;20439;-87
2023/07/22 07:53:09;;;;;;;9.10;8.50;;;;;;;;;;4923383;29;20496;-85
2023/07/22 07:55:35;;;;;;;8.80;8.20;;;;;;;;;;4924206;29;20448;-85
2023/07/22 07:58:01;;;;;;;8.70;8.10;;;;;;;;;;4916987;29;20452;-84
2023/07/22 08:00:27;;;;;;;8.30;7.60;;;;;;;;;;4902015;29;20453;-81
2023/07/22 08:02:53;;;;;;;8.70;7.90;;;;;;;;;;4904080;29;20463;-84
2023/07/22 08:05:20;;;;;;;9.40;8.67;;;;;;;;;;4900247;29;20456;-84
2023/07/22 08:07:46;;;;;;;8.53;8.03;;;;;;;;;;4888448;29;20718;-84
2023/07/22 08:10:12;;;;;;;8.47;8.00;;;;;;;;;;4905058;29;20471;-84
2023/07/22 08:12:39;;;;;;;8.00;7.43;;;;;;;;;;4908991;29;20628;-83
2023/07/22 08:15:05;;;;;;;8.40;7.80;;;;;;;;;;4905197;29;20573;-83
2023/07/22 08:17:31;;;;;;;8.53;7.93;;;;;;;;;;4908917;29;20428;-86
2023/07/22 08:19:57;;;;;;;8.33;7.73;;;;;;;;;;4911685;29;20623;-86
2023/07/22 08:22:23;;;;;;;7.87;7.20;;;;;;;;;;4910043;29;20428;-85
2023/07/22 08:24:49;;;;;;;9.10;8.27;;;;;;;;;;4899283;29;20461;-85
2023/07/22 08:27:15;;;;;;;7.70;7.20;;;;;;;;;;4892588;29;20449;-84
2023/07/22 08:29:41;;;;;;;9.13;8.13;;;;;;;;;;4902954;29;20523;-79
2023/07/22 08:32:07;;;;;;;7.93;7.13;;;;;;;;;;4906558;29;20473;-83
2023/07/22 08:34:33;;;;;;;9.90;9.20;;;;;;;;;;4909781;29;20487;-84
2023/07/22 08:36:59;;;;;;;8.57;8.00;;;;;;;;;;4911846;29;20445;-85
2023/07/22 08:39:25;;;;;;;9.47;8.93;;;;;;;;;;4917395;29;20447;-84
2023/07/22 08:41:51;;;;;;;7.80;7.40;;;;;;;;;;4908420;29;20453;-84
2023/07/22 08:44:20;;;;;;;7.87;7.47;;;;;;;;;;4915702;29;20817;-84
2023/07/22 08:46:47;;;;;;;8.30;7.90;;;;;;;;;;4915674;29;20468;-84
2023/07/22 08:49:14;;;;;;;8.73;7.93;;;;;;;;;;4906635;29;20461;-83
2023/07/22 08:51:40;;;;;;;8.47;7.80;;;;;;;;;;4909695;29;20480;-85
2023/07/22 08:54:06;;;;;;;9.80;7.17;;;;;;;;;;4905864;29;20544;-84
2023/07/22 08:56:32;;;;;;;9.17;8.43;;;;;;;;;;4913660;29;20450;-85
2023/07/22 08:58:58;;;;;;;7.63;6.97;;;;;;;;;;4908695;29;20493;-86
2023/07/22 09:03:56;;;;;;;6.67;6.30;;;;;;;;;;4909380;29;20506;-86
2023/07/22 09:06:22;;;;;;;7.87;7.17;;;;;;;;;;4917235;29;20472;-85
2023/07/22 09:08:48;;;;;;;6.13;5.83;;;;;;;;;;4905671;29;20441;-83
2023/07/22 09:11:15;;;;;;;5.90;5.70;;;;;;;;;;4901549;29;20453;-85
2023/07/22 09:13:42;;;;;;;7.40;7.10;;;;;;;;;;4906442;29;20503;-88
2023/07/22 09:16:08;;;;;;;6.00;5.60;;;;;;;;;;4900932;29;20495;-84
2023/07/22 09:18:34;;;;;;;6.57;6.00;;;;;;;;;;4891575;29;20525;-84
2023/07/22 09:21:00;;;;;;;6.50;6.10;;;;;;;;;;4898802;29;20452;-84
2023/07/22 09:23:33;;;;;;;7.27;6.53;;;;;;;;;;4890632;29;20996;-86
2023/07/22 09:26:08;;;;;;;11.90;11.10;;;;;;;;;;4890616;29;20948;-87
2023/07/22 09:28:50;;;;;;;7.27;6.63;;;;;;;;;;4899119;29;20444;-87
2023/07/22 09:31:16;;;;;;;7.40;6.90;;;;;;;;;;4895603;29;20441;-86
2023/07/22 09:33:42;;;;;;;7.40;6.90;;;;;;;;;;4890658;29;20468;-85
2023/07/22 09:36:10;;;;;;;6.60;5.97;;;;;;;;;;4878588;29;20445;-85
2023/07/22 09:38:36;;;;;;;6.10;5.80;;;;;;;;;;4885244;29;20449;-84
2023/07/22 09:41:02;;;;;;;5.80;5.50;;;;;;;;;;4902582;29;20464;-87
2023/07/22 09:43:28;;;;;;;5.80;5.13;;;;;;;;;;4887881;29;20484;-88
2023/07/22 09:45:54;;;;;;;6.50;6.10;;;;;;;;;;4895964;29;20714;-88
2023/07/22 09:48:22;;;;;;;6.40;6.13;;;;;;;;;;4895023;29;20494;-86
2023/07/22 09:50:56;;;;;;;6.07;5.87;;;;;;;;;;4894900;29;20495;-87
2023/07/22 09:53:22;;;;;;;5.23;5.00;;;;;;;;;;4899333;29;20433;-87
2023/07/22 09:55:48;;;;;;;5.80;5.47;;;;;;;;;;4905897;29;20527;-88
2023/07/22 09:58:14;;;;;;;6.40;6.00;;;;;;;;;;4899361;29;20486;-86
2023/07/22 10:00:43;;;;;;;5.17;4.77;;;;;;;;;;4900372;29;20793;-85
2023/07/22 10:03:11;;;;;;;5.43;5.23;;;;;;;;;;4894554;29;20440;-84
2023/07/22 10:05:38;;;;;;;6.20;5.77;;;;;;;;;;4894815;29;20446;-85
2023/07/22 10:08:06;;;;;;;6.63;5.67;;;;;;;;;;4892865;29;20604;-88
2023/07/22 10:10:33;;;;;;;6.13;5.83;;;;;;;;;;4904292;29;20460;-87
2023/07/22 10:12:59;;;;;;;5.53;5.13;;;;;;;;;;4889250;29;20460;-87
2023/07/22 10:15:27;;;;;;;4.73;4.53;;;;;;;;;;4896462;29;20475;-88
2023/07/22 10:17:53;;;;;;;5.40;5.00;;;;;;;;;;4896658;29;20421;-87
2023/07/22 10:20:20;;;;;;;5.50;4.97;;;;;;;;;;4896400;29;20453;-83
2023/07/22 10:22:47;;;;;;;3.73;3.60;;;;;;;;;;4889640;29;20423;-85
2023/07/22 10:25:15;;;;;;;4.50;4.40;;;;;;;;;;4902974;29;20447;-87
2023/07/22 10:27:41;;;;;;;4.77;4.63;;;;;;;;;;4910928;29;20682;-87
2023/07/22 10:30:14;;;;;;;5.57;5.07;;;;;;;;;;4906820;29;20530;-87
2023/07/22 10:32:41;;;;;;;4.37;4.27;;;;;;;;;;4910680;29;20449;-85
2023/07/22 10:35:11;;;;;;;4.30;4.10;;;;;;;;;;4901741;29;20501;-87
2023/07/22 10:37:38;;;;;;;4.07;3.97;;;;;;;;;;4908267;29;20430;-87
2023/07/22 10:40:36;;;;;;;4.30;4.20;;;;;;;;;;4909193;29;20429;-87
2023/07/22 10:43:06;;;;;;;3.83;3.67;;;;;;;;;;4860296;29;20460;-85
2023/07/22 10:45:33;;;;;;;3.10;2.90;;;;;;;;;;4900301;29;20469;-87
2023/07/22 10:48:09;;;;;;;3.60;3.60;;;;;;;;;;4902436;29;20453;-88
2023/07/22 10:50:42;;;;;;;4.10;3.67;;;;;;;;;;4904926;29;20497;-86
2023/07/22 10:53:12;;;;;;;4.10;3.47;;;;;;;;;;4900464;29;20437;-88
2023/07/22 10:56:03;;;;;;;3.00;3.00;;;;;;;;;;4878162;29;20793;-86
2023/07/22 10:58:31;;;;;;;3.70;3.50;;;;;;;;;;4890280;29;20853;-86
2023/07/22 11:00:56;;;;;;;4.70;3.80;;;;;;;;;;4899482;29;20440;-84
2023/07/22 11:03:22;;;;;;;4.03;3.83;;;;;;;;;;4898861;29;20456;-82
2023/07/22 11:05:52;;;;;;;3.00;3.00;;;;;;;;;;4915206;29;20951;-87
2023/07/22 11:08:36;;;;;;;2.90;2.90;;;;;;;;;;4897546;29;20461;-85
2023/07/22 11:11:02;;;;;;;2.80;2.70;;;;;;;;;;4899903;29;20450;-87
2023/07/22 11:13:28;;;;;;;3.30;3.23;;;;;;;;;;4901947;29;20555;-86
2023/07/22 11:15:59;;;;;;;3.27;3.27;;;;;;;;;;4898362;29;20572;-87
2023/07/22 11:18:36;;;;;;;2.73;2.73;;;;;;;;;;4898598;29;20444;-87
2023/07/22 11:21:01;;;;;;;3.60;3.50;;;;;;;;;;4891945;29;20440;-86
2023/07/22 11:23:27;;;;;;;3.37;3.37;;;;;;;;;;4906514;29;20468;-86
2023/07/22 11:25:54;;;;;;;2.80;2.80;;;;;;;;;;4912816;29;20481;-86
2023/07/22 11:28:20;;;;;;;3.27;3.17;;;;;;;;;;4909924;29;20456;-87
2023/07/22 11:30:46;;;;;;;3.00;3.00;;;;;;;;;;4903061;29;20435;-85
2023/07/22 11:33:12;;;;;;;3.10;3.00;;;;;;;;;;4896333;29;20968;-86
2023/07/22 11:35:37;;;;;;;3.00;2.80;;;;;;;;;;4903938;29;20448;-87
2023/07/22 11:38:04;;;;;;;2.70;2.60;;;;;;;;;;4901612;29;21196;-86
2023/07/22 11:40:33;;;;;;;3.00;3.00;;;;;;;;;;4901157;29;20517;-84
2023/07/22 11:43:00;;;;;;;3.40;3.30;;;;;;;;;;4901591;29;20439;-86
2023/07/22 11:45:26;;;;;;;2.53;2.53;;;;;;;;;;4887603;29;21116;-85
2023/07/22 11:47:52;;;;;;;2.30;2.30;;;;;;;;;;4892896;29;20554;-79
2023/07/22 11:50:18;;;;;;;3.40;3.40;;;;;;;;;;4899875;29;20564;-79
2023/07/22 11:52:50;;;;;;;4.23;2.80;;;;;;;;;;4890043;29;20975;-81
2023/07/22 11:55:16;;;;;;;2.30;2.30;;;;;;;;;;4901070;29;20468;-87
2023/07/22 11:57:42;;;;;;;2.47;2.47;;;;;;;;;;4899671;29;20449;-85
2023/07/22 12:00:09;;;;;;;2.40;2.40;;;;;;;;;;4885395;29;20445;-86
2023/07/22 12:02:36;;;;;;;3.00;2.90;;;;;;;;;;4891807;29;20456;-84
2023/07/22 12:05:04;;;;;;;3.27;3.07;;;;;;;;;;4892201;29;20913;-82
2023/07/22 12:07:34;;;;;;;3.40;3.30;;;;;;;;;;4894112;29;20488;-82
2023/07/22 12:10:01;;;;;;;2.47;2.37;;;;;;;;;;4900134;29;20607;-81
2023/07/22 12:12:34;;;;;;;3.37;2.70;;;;;;;;;;4901168;29;20575;-89
2023/07/22 12:15:19;;;;;;;2.40;2.30;;;;;;;;;;4913356;29;20511;-85
2023/07/22 12:17:46;;;;;;;2.13;2.13;;;;;;;;;;4899899;29;20497;-88
2023/07/22 12:20:12;;;;;;;2.53;2.43;;;;;;;;;;4905012;29;20445;-87
2023/07/22 12:22:38;;;;;;;2.70;2.60;;;;;;;;;;4898182;29;20493;-88
2023/07/22 12:25:05;;;;;;;2.73;2.73;;;;;;;;;;4877726;29;21021;-87
2023/07/22 12:27:31;;;;;;;2.30;2.30;;;;;;;;;;4900018;29;21240;-85
2023/07/22 12:29:57;;;;;;;2.53;2.30;;;;;;;;;;4907485;29;20441;-82
2023/07/22 12:32:23;;;;;;;6.53;6.23;;;;;;;;;;4899900;29;20475;-80
2023/07/22 12:34:49;;;;;;;2.70;2.70;;;;;;;;;;4893555;29;20483;-83
2023/07/22 12:37:15;;;;;;;3.00;3.00;;;;;;;;;;4899261;29;20476;-86
2023/07/22 12:39:41;;;;;;;2.63;2.53;;;;;;;;;;4902557;29;20455;-86
2023/07/22 12:42:08;;;;;;;3.70;3.00;;;;;;;;;;4909244;29;20528;-87
2023/07/22 12:44:34;;;;;;;3.20;3.10;;;;;;;;;;4909183;29;20436;-87
2023/07/22 12:47:00;;;;;;;2.70;2.60;;;;;;;;;;4902786;29;20453;-86
2023/07/22 12:49:26;;;;;;;2.83;2.83;;;;;;;;;;4900232;29;21039;-86
2023/07/22 12:51:52;;;;;;;3.37;3.20;;;;;;;;;;4897904;29;20548;-86
2023/07/22 12:54:18;;;;;;;2.90;2.90;;;;;;;;;;4895011;29;20508;-84
2023/07/22 12:56:44;;;;;;;4.37;3.67;;;;;;;;;;4894048;29;20455;-83
2023/07/22 12:59:10;;;;;;;3.57;3.47;;;;;;;;;;4898383;29;20414;-83
2023/07/22 13:01:39;;;;;;;3.03;2.93;;;;;;;;;;4903536;29;20448;-85
2023/07/22 13:04:05;;;;;;;2.73;2.60;;;;;;;;;;4899408;29;20452;-84
2023/07/22 13:06:31;;;;;;;3.20;3.00;;;;;;;;;;4892524;29;20452;-83
2023/07/22 13:08:57;;;;;;;3.07;2.97;;;;;;;;;;4904934;29;20441;-86
2023/07/22 13:11:23;;;;;;;3.40;3.40;;;;;;;;;;4901749;29;20840;-84
2023/07/22 13:13:49;;;;;;;3.73;3.40;;;;;;;;;;4913161;29;20463;-85
2023/07/22 13:16:15;;;;;;;3.60;3.60;;;;;;;;;;4916202;29;20448;-86
2023/07/22 13:18:41;;;;;;;3.77;3.43;;;;;;;;;;4914033;29;20480;-85
2023/07/22 13:21:31;;;;;;;2.93;2.83;;;;;;;;;;4905498;29;20460;-86
2023/07/22 13:23:57;;;;;;;3.10;3.00;;;;;;;;;;4897788;29;20487;-85
2023/07/22 13:26:23;;;;;;;3.10;3.10;;;;;;;;;;4928310;29;20448;-85
2023/07/22 13:28:49;;;;;;;3.10;3.00;;;;;;;;;;4916944;29;20469;-84
2023/07/22 13:31:16;;;;;;;3.17;3.07;;;;;;;;;;4907450;29;20482;-85
2023/07/22 13:33:42;;;;;;;3.90;3.53;;;;;;;;;;4913024;29;20465;-85
2023/07/22 13:36:09;;;;;;;3.47;3.10;;;;;;;;;;4922530;29;20448;-86
2023/07/22 13:38:35;;;;;;;3.30;3.20;;;;;;;;;;4897181;29;20461;-86
2023/07/22 13:41:08;;;;;;;2.83;2.83;;;;;;;;;;4915489;29;20518;-85
2023/07/22 13:43:42;;;;;;;3.63;3.43;;;;;;;;;;4907499;29;20422;-85
2023/07/22 13:46:09;;;;;;;3.07;3.07;;;;;;;;;;4911050;29;20444;-86
2023/07/22 13:48:35;;;;;;;3.83;3.50;;;;;;;;;;4905683;29;20539;-88
2023/07/22 13:51:01;;;;;;;3.40;3.30;;;;;;;;;;4899841;29;20495;-87
2023/07/22 13:53:27;;;;;;;3.17;3.17;;;;;;;;;;4903423;29;20457;-86
2023/07/22 13:55:53;;;;;;;2.53;2.53;;;;;;;;;;4882462;29;20441;-87
2023/07/22 13:58:19;;;;;;;3.00;2.90;;;;;;;;;;4901775;29;21020;-88
2023/07/22 14:00:45;;;;;;;2.50;2.50;;;;;;;;;;4895425;29;20692;-87
2023/07/22 14:03:11;;;;;;;3.10;3.10;;;;;;;;;;4897640;29;20445;-85
2023/07/22 14:05:36;;;;;;;2.63;2.53;;;;;;;;;;4896673;29;20459;-86
2023/07/22 14:08:02;;;;;;;3.10;3.10;;;;;;;;;;4900940;29;20448;-86
2023/07/22 14:10:28;;;;;;;4.03;3.90;;;;;;;;;;4908890;29;20449;-85
2023/07/22 14:12:54;;;;;;;3.80;3.80;;;;;;;;;;4917376;29;20437;-86
2023/07/22 14:15:20;;;;;;;3.70;3.60;;;;;;;;;;4911635;29;21048;-87
2023/07/22 14:17:48;;;;;;;3.03;3.03;;;;;;;;;;4908493;29;20452;-86
2023/07/22 14:20:14;;;;;;;3.80;3.70;;;;;;;;;;4905393;29;20527;-86
2023/07/22 14:22:42;;;;;;;3.33;3.33;;;;;;;;;;4908384;29;20928;-85
2023/07/22 14:25:08;;;;;;;6.43;3.10;;;;;;;;;;4907261;29;20447;-85
2023/07/22 14:27:34;;;;;;;3.37;3.27;;;;;;;;;;4910536;29;20435;-87
2023/07/22 14:30:01;;;;;;;4.30;4.10;;;;;;;;;;4904850;29;20457;-87
2023/07/22 14:32:27;;;;;;;4.30;4.20;;;;;;;;;;4904002;29;20432;-85
2023/07/22 14:34:53;;;;;;;3.00;3.00;;;;;;;;;;4908525;29;20476;-85
2023/07/22 14:37:19;;;;;;;3.83;3.53;;;;;;;;;;4909777;29;20425;-85
2023/07/22 14:39:45;;;;;;;4.20;4.10;;;;;;;;;;4900917;29;20530;-85
2023/07/22 14:42:11;;;;;;;3.67;3.40;;;;;;;;;;4908187;29;20828;-84
2023/07/22 14:44:37;;;;;;;4.20;3.90;;;;;;;;;;4910791;29;20459;-84